UAE538 VAAH-OMDB
Flight info
| Callsign | UAE538 |
|---|---|
| Flight time | 2h 33m |
| Altitude | 40000 |
| Route | AAE L639 RASKI L301 RAGMA N571 VUSET A454 PASOV B540 KUPMA/N0442F240 B540 MIVEK P574 IMPED |
| Aircraft | A359/H-SDE2E3GHIJ3J4J5LM1ORWXY/LB1D1 |
Departure
| Time | 2026-05-05 01:05 |
|---|---|
| Airport | Sardar Vallabh Patel International Airport (VAAH) |
Arrival
| Time | 2026-05-05 03:39 |
|---|---|
| Airport | Dubai International Airport (OMDB) |
| Time | Latitude | Longitude | Altitude | Speed | Heading |
|---|---|---|---|---|---|
| 2026-05-05 00:40 | 23.07359 | 72.62472 | 194 ft | 0 kts | 302° |
| 2026-05-05 00:56 | 23.07358 | 72.62474 | 213 ft | 3 kts | 298° |
| 2026-05-05 00:56 | 23.07352 | 72.62495 | 202 ft | 3 kts | 255° |
| 2026-05-05 00:57 | 23.07357 | 72.62510 | 209 ft | 0 kts | 228° |
| 2026-05-05 01:00 | 23.07336 | 72.62486 | 204 ft | 12 kts | 222° |
| 2026-05-05 01:00 | 23.07269 | 72.62496 | 201 ft | 10 kts | 153° |
| 2026-05-05 01:01 | 23.07199 | 72.62556 | 206 ft | 15 kts | 136° |
| 2026-05-05 01:01 | 23.07111 | 72.62534 | 203 ft | 16 kts | 238° |
| 2026-05-05 01:01 | 23.07022 | 72.62444 | 208 ft | 20 kts | 223° |
| 2026-05-05 01:01 | 23.06909 | 72.62329 | 206 ft | 25 kts | 224° |
| 2026-05-05 01:02 | 23.06778 | 72.62188 | 208 ft | 27 kts | 226° |
| 2026-05-05 01:02 | 23.06666 | 72.62194 | 206 ft | 13 kts | 112° |
| 2026-05-05 01:02 | 23.06653 | 72.62246 | 203 ft | 13 kts | 102° |
| 2026-05-05 01:03 | 23.06657 | 72.62295 | 210 ft | 13 kts | 71° |
| 2026-05-05 01:03 | 23.06714 | 72.62374 | 210 ft | 13 kts | 46° |
| 2026-05-05 01:03 | 23.06726 | 72.62387 | 204 ft | 0 kts | 46° |
| 2026-05-05 01:05 | 23.06817 | 72.62487 | 210 ft | 53 kts | 45° |
| 2026-05-05 01:05 | 23.07279 | 72.62969 | 209 ft | 128 kts | 43° |
| 2026-05-05 01:05 | 23.08011 | 72.63820 | 278 ft | 178 kts | 50° |
| 2026-05-05 01:05 | 23.08823 | 72.64822 | 1056 ft | 176 kts | 50° |
| 2026-05-05 01:06 | 23.09396 | 72.66095 | 1560 ft | 196 kts | 89° |
| 2026-05-05 01:06 | 23.08991 | 72.67487 | 2198 ft | 204 kts | 132° |
| 2026-05-05 01:06 | 23.07744 | 72.68260 | 2595 ft | 221 kts | 174° |
| 2026-05-05 01:06 | 23.06203 | 72.67927 | 2977 ft | 238 kts | 213° |
| 2026-05-05 01:07 | 23.05175 | 72.66560 | 3640 ft | 241 kts | 251° |
| 2026-05-05 01:07 | 23.05126 | 72.64800 | 4409 ft | 244 kts | 285° |
| 2026-05-05 01:07 | 23.05846 | 72.63110 | 5086 ft | 251 kts | 298° |
| 2026-05-05 01:07 | 23.06631 | 72.61403 | 5746 ft | 258 kts | 288° |
| 2026-05-05 01:08 | 23.06816 | 72.59491 | 6467 ft | 260 kts | 267° |
| 2026-05-05 01:08 | 23.06562 | 72.57502 | 7222 ft | 263 kts | 259° |
| 2026-05-05 01:08 | 23.06164 | 72.55584 | 7988 ft | 267 kts | 257° |
| 2026-05-05 01:08 | 23.05742 | 72.53614 | 8821 ft | 270 kts | 257° |
| 2026-05-05 01:09 | 23.05355 | 72.51605 | 9693 ft | 273 kts | 258° |
| 2026-05-05 01:09 | 23.05008 | 72.49548 | 10369 ft | 283 kts | 259° |
| 2026-05-05 01:09 | 23.04678 | 72.47374 | 10806 ft | 301 kts | 260° |
| 2026-05-05 01:09 | 23.04349 | 72.45053 | 11268 ft | 318 kts | 261° |
| 2026-05-05 01:10 | 23.04013 | 72.42607 | 11820 ft | 329 kts | 261° |
| 2026-05-05 01:10 | 23.03674 | 72.40124 | 12483 ft | 336 kts | 261° |
| 2026-05-05 01:10 | 23.03328 | 72.37613 | 13169 ft | 343 kts | 261° |
| 2026-05-05 01:10 | 23.02966 | 72.35012 | 13845 ft | 348 kts | 261° |
| 2026-05-05 01:11 | 23.02604 | 72.32434 | 14449 ft | 352 kts | 261° |
| 2026-05-05 01:11 | 23.02233 | 72.29804 | 15084 ft | 356 kts | 261° |
| 2026-05-05 01:11 | 23.01853 | 72.27115 | 15724 ft | 360 kts | 261° |
| 2026-05-05 01:11 | 23.01469 | 72.24407 | 16360 ft | 364 kts | 262° |
| 2026-05-05 01:12 | 23.01083 | 72.21685 | 16987 ft | 368 kts | 262° |
| 2026-05-05 01:12 | 23.00690 | 72.18911 | 17606 ft | 372 kts | 262° |
| 2026-05-05 01:12 | 23.00295 | 72.16130 | 18239 ft | 376 kts | 262° |
| 2026-05-05 01:12 | 22.99898 | 72.13334 | 18809 ft | 379 kts | 263° |
| 2026-05-05 01:13 | 22.99494 | 72.10495 | 19398 ft | 382 kts | 263° |
| 2026-05-05 01:13 | 22.99080 | 72.07589 | 20005 ft | 385 kts | 263° |
| 2026-05-05 01:13 | 22.98674 | 72.04745 | 20591 ft | 389 kts | 263° |
| 2026-05-05 01:13 | 22.98258 | 72.01839 | 21187 ft | 392 kts | 263° |
| 2026-05-05 01:14 | 22.97839 | 71.98909 | 21795 ft | 395 kts | 263° |
| 2026-05-05 01:14 | 22.97412 | 71.95934 | 22371 ft | 398 kts | 263° |
| 2026-05-05 01:14 | 22.96984 | 71.92954 | 22983 ft | 401 kts | 263° |
| 2026-05-05 01:14 | 22.96554 | 71.89963 | 23542 ft | 404 kts | 264° |
| 2026-05-05 01:15 | 22.96121 | 71.86955 | 24082 ft | 406 kts | 264° |
| 2026-05-05 01:15 | 22.95679 | 71.83896 | 24599 ft | 409 kts | 264° |
| 2026-05-05 01:15 | 22.95241 | 71.80856 | 25100 ft | 411 kts | 264° |
| 2026-05-05 01:15 | 22.94795 | 71.77773 | 25604 ft | 414 kts | 264° |
| 2026-05-05 01:16 | 22.94348 | 71.74684 | 26113 ft | 416 kts | 264° |
| 2026-05-05 01:16 | 22.93901 | 71.71597 | 26599 ft | 419 kts | 264° |
| 2026-05-05 01:16 | 22.93445 | 71.68459 | 27101 ft | 422 kts | 265° |
| 2026-05-05 01:16 | 22.92980 | 71.65260 | 27579 ft | 424 kts | 265° |
| 2026-05-05 01:17 | 22.92525 | 71.62130 | 28072 ft | 427 kts | 265° |
| 2026-05-05 01:17 | 22.92059 | 71.58935 | 28535 ft | 430 kts | 265° |
| 2026-05-05 01:17 | 22.91591 | 71.55727 | 28980 ft | 433 kts | 265° |
| 2026-05-05 01:17 | 22.91120 | 71.52508 | 29392 ft | 437 kts | 265° |
| 2026-05-05 01:18 | 22.90641 | 71.49233 | 29814 ft | 440 kts | 265° |
| 2026-05-05 01:18 | 22.90157 | 71.45933 | 30184 ft | 442 kts | 265° |
| 2026-05-05 01:18 | 22.89673 | 71.42638 | 30531 ft | 445 kts | 265° |
| 2026-05-05 01:18 | 22.89182 | 71.39306 | 30873 ft | 448 kts | 265° |
| 2026-05-05 01:19 | 22.88690 | 71.35970 | 31209 ft | 451 kts | 264° |
| 2026-05-05 01:19 | 22.88194 | 71.32610 | 31549 ft | 453 kts | 264° |
| 2026-05-05 01:19 | 22.87860 | 71.30351 | 31773 ft | 454 kts | 264° |
| 2026-05-05 01:19 | 22.87360 | 71.26979 | 32082 ft | 457 kts | 264° |
| 2026-05-05 01:20 | 22.86686 | 71.22428 | 32510 ft | 460 kts | 264° |
| 2026-05-05 01:20 | 22.86345 | 71.20132 | 32720 ft | 461 kts | 264° |
| 2026-05-05 01:20 | 22.85832 | 71.16685 | 33012 ft | 463 kts | 263° |
| 2026-05-05 01:20 | 22.85320 | 71.13246 | 33300 ft | 465 kts | 263° |
| 2026-05-05 01:21 | 22.84803 | 71.09782 | 33576 ft | 467 kts | 263° |
| 2026-05-05 01:21 | 22.84276 | 71.06249 | 33847 ft | 469 kts | 263° |
| 2026-05-05 01:21 | 22.83756 | 71.02773 | 34167 ft | 469 kts | 263° |
| 2026-05-05 01:21 | 22.83238 | 70.99322 | 34460 ft | 468 kts | 263° |
| 2026-05-05 01:22 | 22.82719 | 70.95861 | 34771 ft | 468 kts | 263° |
| 2026-05-05 01:22 | 22.82193 | 70.92363 | 35076 ft | 468 kts | 263° |
| 2026-05-05 01:22 | 22.81672 | 70.88896 | 35389 ft | 467 kts | 263° |
| 2026-05-05 01:22 | 22.81171 | 70.85373 | 35649 ft | 467 kts | 265° |
| 2026-05-05 01:23 | 22.80997 | 70.81900 | 35904 ft | 466 kts | 272° |
| 2026-05-05 01:23 | 22.81143 | 70.78384 | 36209 ft | 465 kts | 274° |
| 2026-05-05 01:23 | 22.81346 | 70.74928 | 36489 ft | 464 kts | 275° |
| 2026-05-05 01:23 | 22.81571 | 70.71436 | 36770 ft | 464 kts | 275° |
| 2026-05-05 01:24 | 22.81802 | 70.67943 | 37052 ft | 463 kts | 275° |
| 2026-05-05 01:24 | 22.82035 | 70.64419 | 37336 ft | 463 kts | 275° |
| 2026-05-05 01:24 | 22.82257 | 70.60988 | 37614 ft | 462 kts | 275° |
| 2026-05-05 01:24 | 22.82481 | 70.57493 | 37878 ft | 462 kts | 274° |
| 2026-05-05 01:25 | 22.82697 | 70.54059 | 38140 ft | 461 kts | 274° |
| 2026-05-05 01:25 | 22.82915 | 70.50577 | 38358 ft | 462 kts | 274° |
| 2026-05-05 01:25 | 22.83132 | 70.47086 | 38582 ft | 461 kts | 274° |
| 2026-05-05 01:25 | 22.83344 | 70.43657 | 38909 ft | 458 kts | 275° |
| 2026-05-05 01:26 | 22.83556 | 70.40221 | 39158 ft | 456 kts | 275° |
| 2026-05-05 01:26 | 22.83769 | 70.36768 | 39354 ft | 456 kts | 275° |
| 2026-05-05 01:26 | 22.83978 | 70.33359 | 39536 ft | 456 kts | 275° |
| 2026-05-05 01:26 | 22.84188 | 70.29929 | 39726 ft | 455 kts | 275° |
| 2026-05-05 01:27 | 22.84604 | 70.23106 | 39828 ft | 456 kts | 275° |
| 2026-05-05 01:27 | 22.85017 | 70.16270 | 39820 ft | 455 kts | 275° |
| 2026-05-05 01:28 | 22.85430 | 70.09393 | 39819 ft | 455 kts | 275° |
| 2026-05-05 01:28 | 22.85837 | 70.02557 | 39820 ft | 455 kts | 275° |
| 2026-05-05 01:29 | 22.86241 | 69.95724 | 39821 ft | 455 kts | 275° |
| 2026-05-05 01:29 | 22.86645 | 69.88854 | 39818 ft | 455 kts | 275° |
| 2026-05-05 01:30 | 22.87046 | 69.81963 | 39817 ft | 456 kts | 275° |
| 2026-05-05 01:30 | 22.87443 | 69.75111 | 39818 ft | 457 kts | 275° |
| 2026-05-05 01:31 | 22.87841 | 69.68235 | 39818 ft | 457 kts | 275° |
| 2026-05-05 01:31 | 22.88280 | 69.61419 | 39821 ft | 457 kts | 275° |
| 2026-05-05 01:32 | 22.88732 | 69.54539 | 39821 ft | 457 kts | 275° |
| 2026-05-05 01:32 | 22.89175 | 69.47658 | 39820 ft | 458 kts | 275° |
| 2026-05-05 01:33 | 22.89605 | 69.40885 | 39821 ft | 459 kts | 275° |
| 2026-05-05 01:33 | 22.89817 | 69.37519 | 41445 ft | 459 kts | 274° |
| 2026-05-05 01:33 | 22.90037 | 69.34024 | 41220 ft | 466 kts | 274° |
| 2026-05-05 01:34 | 22.90260 | 69.30454 | 40988 ft | 471 kts | 274° |
| 2026-05-05 01:34 | 22.90479 | 69.26942 | 40735 ft | 468 kts | 274° |
| 2026-05-05 01:34 | 22.90696 | 69.23457 | 40515 ft | 464 kts | 274° |
| 2026-05-05 01:34 | 22.90912 | 69.19970 | 40252 ft | 460 kts | 274° |
| 2026-05-05 01:35 | 22.91120 | 69.16612 | 40037 ft | 458 kts | 274° |
| 2026-05-05 01:35 | 22.91330 | 69.13183 | 39998 ft | 457 kts | 274° |
| 2026-05-05 01:35 | 22.91539 | 69.09767 | 38576 ft | 457 kts | 275° |
| 2026-05-05 01:35 | 22.91751 | 69.06302 | 38792 ft | 457 kts | 275° |
| 2026-05-05 01:36 | 22.91958 | 69.02905 | 38996 ft | 456 kts | 275° |
| 2026-05-05 01:36 | 22.92168 | 68.99439 | 39229 ft | 455 kts | 275° |
| 2026-05-05 01:36 | 22.92374 | 68.96028 | 39446 ft | 454 kts | 275° |
| 2026-05-05 01:36 | 22.92580 | 68.92610 | 39683 ft | 453 kts | 275° |
| 2026-05-05 01:37 | 22.92786 | 68.89185 | 39811 ft | 455 kts | 275° |
| 2026-05-05 01:37 | 22.92990 | 68.85781 | 39802 ft | 458 kts | 275° |
| 2026-05-05 01:37 | 22.93398 | 68.78919 | 39807 ft | 459 kts | 275° |
| 2026-05-05 01:38 | 22.93807 | 68.71998 | 39810 ft | 459 kts | 275° |
| 2026-05-05 01:38 | 22.94211 | 68.65094 | 39810 ft | 459 kts | 275° |
| 2026-05-05 01:39 | 22.94612 | 68.58198 | 39807 ft | 459 kts | 275° |
| 2026-05-05 01:39 | 22.95011 | 68.51302 | 39803 ft | 459 kts | 275° |
| 2026-05-05 01:40 | 22.95411 | 68.44325 | 39810 ft | 460 kts | 275° |
| 2026-05-05 01:40 | 22.95801 | 68.37469 | 39810 ft | 461 kts | 275° |
| 2026-05-05 01:41 | 22.95955 | 68.30524 | 39812 ft | 461 kts | 271° |
| 2026-05-05 01:41 | 22.95859 | 68.23540 | 39812 ft | 461 kts | 270° |
| 2026-05-05 01:42 | 22.95803 | 68.16576 | 39806 ft | 461 kts | 271° |
| 2026-05-05 01:42 | 22.95793 | 68.09648 | 39810 ft | 462 kts | 271° |
| 2026-05-05 01:43 | 22.95794 | 68.02615 | 39810 ft | 463 kts | 271° |
| 2026-05-05 01:43 | 22.95791 | 67.95641 | 39810 ft | 463 kts | 271° |
| 2026-05-05 01:44 | 22.95783 | 67.88659 | 39813 ft | 463 kts | 271° |
| 2026-05-05 01:44 | 22.95789 | 67.81702 | 39812 ft | 462 kts | 271° |
| 2026-05-05 01:45 | 22.95809 | 67.74722 | 39816 ft | 462 kts | 271° |
| 2026-05-05 01:45 | 22.95824 | 67.67790 | 39815 ft | 462 kts | 271° |
| 2026-05-05 01:46 | 22.95834 | 67.60768 | 39816 ft | 462 kts | 271° |
| 2026-05-05 01:46 | 22.95841 | 67.53838 | 39814 ft | 463 kts | 271° |
| 2026-05-05 01:47 | 22.95845 | 67.46853 | 39815 ft | 464 kts | 271° |
| 2026-05-05 01:47 | 22.95845 | 67.39837 | 39813 ft | 464 kts | 271° |
| 2026-05-05 01:48 | 22.95843 | 67.32844 | 39812 ft | 464 kts | 271° |
| 2026-05-05 01:48 | 22.95837 | 67.25819 | 39810 ft | 464 kts | 271° |
| 2026-05-05 01:49 | 22.95829 | 67.18884 | 39807 ft | 464 kts | 271° |
| 2026-05-05 01:49 | 22.95817 | 67.11860 | 39807 ft | 465 kts | 271° |
| 2026-05-05 01:50 | 22.95802 | 67.04853 | 39815 ft | 465 kts | 271° |
| 2026-05-05 01:50 | 22.95784 | 66.97849 | 39810 ft | 463 kts | 271° |
| 2026-05-05 01:51 | 22.95793 | 66.90863 | 39813 ft | 462 kts | 271° |
| 2026-05-05 01:51 | 22.95847 | 66.83883 | 39810 ft | 463 kts | 271° |
| 2026-05-05 01:52 | 22.95897 | 66.76893 | 39810 ft | 464 kts | 271° |
| 2026-05-05 01:52 | 22.95936 | 66.69869 | 39810 ft | 464 kts | 271° |
| 2026-05-05 01:53 | 22.95969 | 66.62934 | 39807 ft | 464 kts | 271° |
| 2026-05-05 01:53 | 22.95999 | 66.55899 | 39806 ft | 464 kts | 271° |
| 2026-05-05 01:54 | 22.96026 | 66.48937 | 39807 ft | 464 kts | 271° |
| 2026-05-05 01:54 | 22.96051 | 66.41949 | 39806 ft | 464 kts | 271° |
| 2026-05-05 01:55 | 22.96072 | 66.34931 | 39807 ft | 464 kts | 271° |
| 2026-05-05 01:55 | 22.96090 | 66.27937 | 39807 ft | 464 kts | 271° |
| 2026-05-05 01:56 | 22.96106 | 66.20928 | 39811 ft | 464 kts | 271° |
| 2026-05-05 01:56 | 22.96118 | 66.13913 | 39812 ft | 464 kts | 271° |
| 2026-05-05 01:57 | 22.96127 | 66.06953 | 39814 ft | 464 kts | 271° |
| 2026-05-05 01:57 | 22.96132 | 65.99899 | 39809 ft | 464 kts | 271° |
| 2026-05-05 01:58 | 22.96135 | 65.92896 | 39815 ft | 464 kts | 271° |
| 2026-05-05 01:58 | 22.96135 | 65.85934 | 39811 ft | 464 kts | 271° |
| 2026-05-05 01:59 | 22.96132 | 65.78956 | 39811 ft | 463 kts | 271° |
| 2026-05-05 01:59 | 22.96126 | 65.71954 | 39812 ft | 463 kts | 271° |
| 2026-05-05 02:00 | 22.96116 | 65.64960 | 39819 ft | 463 kts | 271° |
| 2026-05-05 02:00 | 22.96104 | 65.57997 | 39817 ft | 463 kts | 270° |
| 2026-05-05 02:01 | 22.96088 | 65.50965 | 39812 ft | 463 kts | 270° |
| 2026-05-05 02:01 | 22.96070 | 65.43995 | 39815 ft | 463 kts | 270° |
| 2026-05-05 02:02 | 22.96048 | 65.36976 | 39811 ft | 463 kts | 270° |
| 2026-05-05 02:02 | 22.96023 | 65.30030 | 39822 ft | 463 kts | 270° |
| 2026-05-05 02:03 | 22.95996 | 65.23053 | 39822 ft | 464 kts | 270° |
| 2026-05-05 02:03 | 22.95965 | 65.16038 | 39819 ft | 464 kts | 270° |
| 2026-05-05 02:04 | 22.95931 | 65.09043 | 39818 ft | 462 kts | 270° |
| 2026-05-05 02:04 | 22.95894 | 65.02134 | 39818 ft | 462 kts | 270° |
| 2026-05-05 02:05 | 22.95854 | 64.95111 | 39820 ft | 462 kts | 270° |
| 2026-05-05 02:05 | 22.95812 | 64.88206 | 39820 ft | 461 kts | 270° |
| 2026-05-05 02:06 | 22.96024 | 64.81245 | 39823 ft | 461 kts | 276° |
| 2026-05-05 02:06 | 22.96726 | 64.74333 | 39821 ft | 461 kts | 277° |
| 2026-05-05 02:07 | 22.97467 | 64.67439 | 39824 ft | 461 kts | 277° |
| 2026-05-05 02:07 | 22.98209 | 64.60506 | 39826 ft | 461 kts | 277° |
| 2026-05-05 02:08 | 22.98939 | 64.53604 | 39827 ft | 461 kts | 277° |
| 2026-05-05 02:08 | 22.99662 | 64.46715 | 39826 ft | 461 kts | 277° |
| 2026-05-05 02:09 | 23.00388 | 64.39767 | 39826 ft | 461 kts | 277° |
| 2026-05-05 02:09 | 23.01104 | 64.32887 | 39824 ft | 461 kts | 277° |
| 2026-05-05 02:10 | 23.01820 | 64.25985 | 39826 ft | 461 kts | 276° |
| 2026-05-05 02:10 | 23.02531 | 64.19092 | 39827 ft | 461 kts | 276° |
| 2026-05-05 02:11 | 23.03241 | 64.12180 | 39827 ft | 461 kts | 276° |
| 2026-05-05 02:11 | 23.03949 | 64.05269 | 39829 ft | 461 kts | 276° |
| 2026-05-05 02:12 | 23.04887 | 63.96058 | 39829 ft | 462 kts | 276° |
| 2026-05-05 02:13 | 23.05583 | 63.89178 | 39829 ft | 462 kts | 276° |
| 2026-05-05 02:13 | 23.06297 | 63.82223 | 39829 ft | 462 kts | 276° |
| 2026-05-05 02:14 | 23.07021 | 63.75321 | 39829 ft | 462 kts | 276° |
| 2026-05-05 02:14 | 23.07744 | 63.68384 | 39829 ft | 463 kts | 276° |
| 2026-05-05 02:15 | 23.08463 | 63.61446 | 39827 ft | 463 kts | 276° |
| 2026-05-05 02:15 | 23.09182 | 63.54470 | 39829 ft | 463 kts | 276° |
| 2026-05-05 02:16 | 23.09896 | 63.47510 | 39831 ft | 463 kts | 276° |
| 2026-05-05 02:16 | 23.10606 | 63.40562 | 39828 ft | 463 kts | 276° |
| 2026-05-05 02:17 | 23.11314 | 63.33604 | 39828 ft | 463 kts | 276° |
| 2026-05-05 02:17 | 23.12016 | 63.26678 | 39829 ft | 463 kts | 276° |
| 2026-05-05 02:18 | 23.12716 | 63.19734 | 39827 ft | 463 kts | 276° |
| 2026-05-05 02:18 | 23.13420 | 63.12723 | 39823 ft | 463 kts | 276° |
| 2026-05-05 02:19 | 23.14111 | 63.05807 | 39826 ft | 464 kts | 276° |
| 2026-05-05 02:19 | 23.14809 | 62.98794 | 39823 ft | 465 kts | 276° |
| 2026-05-05 02:20 | 23.15495 | 62.91864 | 39823 ft | 464 kts | 276° |
| 2026-05-05 02:20 | 23.16181 | 62.84898 | 39823 ft | 463 kts | 276° |
| 2026-05-05 02:21 | 23.16867 | 62.77919 | 39821 ft | 463 kts | 276° |
| 2026-05-05 02:21 | 23.17548 | 62.70947 | 39823 ft | 463 kts | 276° |
| 2026-05-05 02:22 | 23.18220 | 62.64033 | 39821 ft | 463 kts | 276° |
| 2026-05-05 02:22 | 23.18898 | 62.57027 | 39821 ft | 463 kts | 276° |
| 2026-05-05 02:23 | 23.19570 | 62.50051 | 39818 ft | 464 kts | 276° |
| 2026-05-05 02:23 | 23.20234 | 62.43129 | 39821 ft | 465 kts | 276° |
| 2026-05-05 02:24 | 23.20903 | 62.36125 | 39818 ft | 465 kts | 276° |
| 2026-05-05 02:24 | 23.21569 | 62.29110 | 39818 ft | 465 kts | 276° |
| 2026-05-05 02:25 | 23.22228 | 62.22142 | 39811 ft | 465 kts | 276° |
| 2026-05-05 02:25 | 23.22887 | 62.15134 | 39818 ft | 466 kts | 276° |
| 2026-05-05 02:26 | 23.23546 | 62.08097 | 39818 ft | 467 kts | 276° |
| 2026-05-05 02:26 | 23.24199 | 62.01087 | 39812 ft | 467 kts | 276° |
| 2026-05-05 02:27 | 23.24851 | 61.94051 | 39818 ft | 467 kts | 276° |
| 2026-05-05 02:27 | 23.25499 | 61.87031 | 39814 ft | 464 kts | 276° |
| 2026-05-05 02:28 | 23.26139 | 61.80058 | 39817 ft | 463 kts | 276° |
| 2026-05-05 02:28 | 23.26776 | 61.73090 | 39809 ft | 463 kts | 276° |
| 2026-05-05 02:29 | 23.27406 | 61.66164 | 39808 ft | 463 kts | 276° |
| 2026-05-05 02:29 | 23.28036 | 61.59203 | 39810 ft | 463 kts | 276° |
| 2026-05-05 02:30 | 23.28665 | 61.52207 | 39808 ft | 463 kts | 276° |
| 2026-05-05 02:30 | 23.29290 | 61.45238 | 39810 ft | 463 kts | 276° |
| 2026-05-05 02:31 | 23.29907 | 61.38307 | 39808 ft | 463 kts | 276° |
| 2026-05-05 02:31 | 23.30529 | 61.31296 | 39806 ft | 463 kts | 276° |
| 2026-05-05 02:32 | 23.31140 | 61.24372 | 39807 ft | 463 kts | 276° |
| 2026-05-05 02:32 | 23.31753 | 61.17402 | 39804 ft | 463 kts | 276° |
| 2026-05-05 02:33 | 23.32559 | 61.10449 | 39805 ft | 463 kts | 279° |
| 2026-05-05 02:33 | 23.33498 | 61.03514 | 39799 ft | 463 kts | 278° |
| 2026-05-05 02:34 | 23.34402 | 60.96586 | 39805 ft | 462 kts | 278° |
| 2026-05-05 02:34 | 23.35265 | 60.89709 | 39801 ft | 459 kts | 278° |
| 2026-05-05 02:35 | 23.36122 | 60.82793 | 39798 ft | 458 kts | 278° |
| 2026-05-05 02:35 | 23.36967 | 60.75957 | 39799 ft | 458 kts | 278° |
| 2026-05-05 02:36 | 23.37814 | 60.69091 | 39796 ft | 459 kts | 278° |
| 2026-05-05 02:36 | 23.39229 | 60.62348 | 39797 ft | 458 kts | 290° |
| 2026-05-05 02:37 | 23.41541 | 60.55865 | 39793 ft | 458 kts | 291° |
| 2026-05-05 02:37 | 23.43917 | 60.49417 | 39793 ft | 458 kts | 291° |
| 2026-05-05 02:38 | 23.46280 | 60.42985 | 39790 ft | 459 kts | 291° |
| 2026-05-05 02:38 | 23.48633 | 60.36543 | 39790 ft | 459 kts | 291° |
| 2026-05-05 02:39 | 23.50986 | 60.30081 | 39789 ft | 457 kts | 291° |
| 2026-05-05 02:39 | 23.53334 | 60.23624 | 39788 ft | 456 kts | 291° |
| 2026-05-05 02:40 | 23.55657 | 60.17225 | 39782 ft | 456 kts | 291° |
| 2026-05-05 02:40 | 23.57995 | 60.10777 | 39785 ft | 457 kts | 291° |
| 2026-05-05 02:41 | 23.60320 | 60.04356 | 39787 ft | 457 kts | 291° |
| 2026-05-05 02:41 | 23.62644 | 59.97927 | 39788 ft | 457 kts | 291° |
| 2026-05-05 02:42 | 23.64983 | 59.91447 | 39786 ft | 457 kts | 291° |
| 2026-05-05 02:42 | 23.67303 | 59.85013 | 39789 ft | 457 kts | 290° |
| 2026-05-05 02:43 | 23.69625 | 59.78561 | 39781 ft | 455 kts | 290° |
| 2026-05-05 02:43 | 23.71930 | 59.72147 | 39784 ft | 455 kts | 290° |
| 2026-05-05 02:44 | 23.74244 | 59.65697 | 39787 ft | 455 kts | 290° |
| 2026-05-05 02:44 | 23.76531 | 59.59311 | 39779 ft | 455 kts | 290° |
| 2026-05-05 02:45 | 23.78852 | 59.52823 | 39785 ft | 456 kts | 290° |
| 2026-05-05 02:45 | 23.81139 | 59.46420 | 39785 ft | 456 kts | 290° |
| 2026-05-05 02:46 | 23.83441 | 59.39968 | 39785 ft | 456 kts | 290° |
| 2026-05-05 02:46 | 23.85730 | 59.33540 | 39782 ft | 454 kts | 290° |
| 2026-05-05 02:47 | 23.88012 | 59.27122 | 39784 ft | 453 kts | 290° |
| 2026-05-05 02:47 | 23.90296 | 59.20689 | 39785 ft | 454 kts | 290° |
| 2026-05-05 02:48 | 23.92579 | 59.14248 | 39781 ft | 454 kts | 290° |
| 2026-05-05 02:48 | 23.94784 | 59.07774 | 39782 ft | 454 kts | 288° |
| 2026-05-05 02:49 | 23.96819 | 59.01264 | 39782 ft | 454 kts | 287° |
| 2026-05-05 02:49 | 23.98875 | 58.94717 | 39783 ft | 455 kts | 288° |
| 2026-05-05 02:50 | 24.00948 | 58.88215 | 39788 ft | 455 kts | 288° |
| 2026-05-05 02:50 | 24.03034 | 58.81697 | 39785 ft | 453 kts | 288° |
| 2026-05-05 02:51 | 24.05109 | 58.75198 | 39783 ft | 452 kts | 288° |
| 2026-05-05 02:51 | 24.07177 | 58.68705 | 39786 ft | 452 kts | 288° |
| 2026-05-05 02:52 | 24.09243 | 58.62208 | 39787 ft | 452 kts | 287° |
| 2026-05-05 02:52 | 24.11321 | 58.55676 | 39789 ft | 453 kts | 288° |
| 2026-05-05 02:53 | 24.13380 | 58.49195 | 39784 ft | 452 kts | 287° |
| 2026-05-05 02:53 | 24.15441 | 58.42664 | 39785 ft | 453 kts | 287° |
| 2026-05-05 02:54 | 24.17495 | 58.36153 | 39787 ft | 452 kts | 287° |
| 2026-05-05 02:54 | 24.19548 | 58.29645 | 39783 ft | 450 kts | 287° |
| 2026-05-05 02:55 | 24.21575 | 58.23208 | 39785 ft | 450 kts | 287° |
| 2026-05-05 02:55 | 24.23604 | 58.16757 | 39288 ft | 444 kts | 287° |
| 2026-05-05 02:55 | 24.24614 | 58.13540 | 38641 ft | 445 kts | 287° |
| 2026-05-05 02:56 | 24.25617 | 58.10341 | 37892 ft | 446 kts | 287° |
| 2026-05-05 02:56 | 24.26621 | 58.07133 | 37077 ft | 448 kts | 287° |
| 2026-05-05 02:56 | 24.27640 | 58.03876 | 36245 ft | 450 kts | 287° |
| 2026-05-05 02:56 | 24.28653 | 58.00634 | 35418 ft | 453 kts | 288° |
| 2026-05-05 02:57 | 24.29681 | 57.97344 | 34606 ft | 456 kts | 288° |
| 2026-05-05 02:57 | 24.30700 | 57.94083 | 33801 ft | 459 kts | 288° |
| 2026-05-05 02:57 | 24.31738 | 57.90758 | 32824 ft | 462 kts | 288° |
| 2026-05-05 02:57 | 24.32793 | 57.87379 | 31879 ft | 465 kts | 288° |
| 2026-05-05 02:58 | 24.33844 | 57.84008 | 31030 ft | 467 kts | 288° |
| 2026-05-05 02:58 | 24.34894 | 57.80637 | 30288 ft | 465 kts | 288° |
| 2026-05-05 02:58 | 24.35918 | 57.77348 | 29581 ft | 464 kts | 288° |
| 2026-05-05 02:58 | 24.36961 | 57.73992 | 28779 ft | 462 kts | 288° |
| 2026-05-05 02:59 | 24.37990 | 57.70677 | 28052 ft | 459 kts | 288° |
| 2026-05-05 02:59 | 24.39009 | 57.67393 | 27358 ft | 456 kts | 288° |
| 2026-05-05 02:59 | 24.40028 | 57.64107 | 26704 ft | 453 kts | 288° |
| 2026-05-05 02:59 | 24.41042 | 57.60834 | 26056 ft | 450 kts | 288° |
| 2026-05-05 03:00 | 24.42038 | 57.57614 | 25422 ft | 447 kts | 288° |
| 2026-05-05 03:00 | 24.43034 | 57.54390 | 24801 ft | 443 kts | 288° |
| 2026-05-05 03:00 | 24.44006 | 57.51243 | 24208 ft | 440 kts | 288° |
| 2026-05-05 03:00 | 24.44670 | 57.49099 | 23807 ft | 438 kts | 288° |
| 2026-05-05 03:01 | 24.45966 | 57.44908 | 22936 ft | 435 kts | 288° |
| 2026-05-05 03:01 | 24.46615 | 57.42797 | 22474 ft | 432 kts | 288° |
| 2026-05-05 03:01 | 24.47572 | 57.39684 | 21827 ft | 428 kts | 288° |
| 2026-05-05 03:01 | 24.48518 | 57.36605 | 21176 ft | 424 kts | 288° |
| 2026-05-05 03:02 | 24.49455 | 57.33553 | 20515 ft | 421 kts | 288° |
| 2026-05-05 03:02 | 24.50388 | 57.30514 | 19906 ft | 417 kts | 288° |
| 2026-05-05 03:02 | 24.51309 | 57.27514 | 19313 ft | 413 kts | 288° |
| 2026-05-05 03:02 | 24.52218 | 57.24549 | 18707 ft | 410 kts | 289° |
| 2026-05-05 03:03 | 24.53120 | 57.21607 | 18124 ft | 407 kts | 289° |
| 2026-05-05 03:03 | 24.54031 | 57.18629 | 17440 ft | 403 kts | 289° |
| 2026-05-05 03:03 | 24.54918 | 57.15731 | 16789 ft | 400 kts | 289° |
| 2026-05-05 03:03 | 24.55793 | 57.12873 | 16135 ft | 397 kts | 289° |
| 2026-05-05 03:04 | 24.56671 | 57.09999 | 15488 ft | 394 kts | 289° |
| 2026-05-05 03:04 | 24.57545 | 57.07137 | 14851 ft | 391 kts | 289° |
| 2026-05-05 03:04 | 24.58395 | 57.04351 | 14251 ft | 388 kts | 289° |
| 2026-05-05 03:04 | 24.59247 | 57.01553 | 13634 ft | 385 kts | 289° |
| 2026-05-05 03:05 | 24.60097 | 56.98766 | 12945 ft | 383 kts | 289° |
| 2026-05-05 03:05 | 24.60938 | 56.96003 | 12294 ft | 380 kts | 289° |
| 2026-05-05 03:05 | 24.61771 | 56.93267 | 11898 ft | 372 kts | 289° |
| 2026-05-05 03:05 | 24.62587 | 56.90584 | 11781 ft | 370 kts | 289° |
| 2026-05-05 03:06 | 24.63408 | 56.87884 | 11772 ft | 374 kts | 289° |
| 2026-05-05 03:06 | 24.64284 | 56.85173 | 11772 ft | 375 kts | 293° |
| 2026-05-05 03:06 | 24.65454 | 56.82612 | 11774 ft | 375 kts | 299° |
| 2026-05-05 03:06 | 24.66744 | 56.80154 | 11775 ft | 375 kts | 301° |
| 2026-05-05 03:07 | 24.68084 | 56.77713 | 11779 ft | 375 kts | 302° |
| 2026-05-05 03:07 | 24.69458 | 56.75256 | 11779 ft | 375 kts | 302° |
| 2026-05-05 03:07 | 24.70828 | 56.72814 | 11781 ft | 375 kts | 302° |
| 2026-05-05 03:07 | 24.72196 | 56.70364 | 11741 ft | 375 kts | 302° |
| 2026-05-05 03:08 | 24.73553 | 56.67921 | 11302 ft | 376 kts | 301° |
| 2026-05-05 03:08 | 24.74906 | 56.65474 | 10921 ft | 373 kts | 301° |
| 2026-05-05 03:08 | 24.76256 | 56.63023 | 10790 ft | 372 kts | 301° |
| 2026-05-05 03:08 | 24.77594 | 56.60592 | 10785 ft | 372 kts | 301° |
| 2026-05-05 03:09 | 24.78926 | 56.58168 | 10785 ft | 372 kts | 301° |
| 2026-05-05 03:09 | 24.80276 | 56.55711 | 10785 ft | 372 kts | 302° |
| 2026-05-05 03:09 | 24.81612 | 56.53277 | 10784 ft | 372 kts | 302° |
| 2026-05-05 03:09 | 24.82950 | 56.50842 | 10781 ft | 372 kts | 302° |
| 2026-05-05 03:10 | 24.84274 | 56.48432 | 10779 ft | 372 kts | 302° |
| 2026-05-05 03:10 | 24.85615 | 56.45989 | 10779 ft | 372 kts | 302° |
| 2026-05-05 03:10 | 24.86950 | 56.43540 | 10778 ft | 373 kts | 301° |
| 2026-05-05 03:10 | 24.87986 | 56.40931 | 10783 ft | 374 kts | 287° |
| 2026-05-05 03:11 | 24.88403 | 56.38135 | 10787 ft | 374 kts | 273° |
| 2026-05-05 03:11 | 24.88407 | 56.35264 | 10780 ft | 375 kts | 269° |
| 2026-05-05 03:11 | 24.88275 | 56.32423 | 10775 ft | 375 kts | 267° |
| 2026-05-05 03:11 | 24.88090 | 56.29550 | 10773 ft | 375 kts | 266° |
| 2026-05-05 03:12 | 24.88095 | 56.26662 | 10774 ft | 374 kts | 277° |
| 2026-05-05 03:12 | 24.88730 | 56.23913 | 10780 ft | 371 kts | 294° |
| 2026-05-05 03:12 | 24.89896 | 56.21392 | 10780 ft | 371 kts | 300° |
| 2026-05-05 03:12 | 24.91161 | 56.18924 | 10779 ft | 371 kts | 300° |
| 2026-05-05 03:13 | 24.92433 | 56.16437 | 10775 ft | 371 kts | 300° |
| 2026-05-05 03:13 | 24.93702 | 56.13959 | 10777 ft | 371 kts | 300° |
| 2026-05-05 03:13 | 24.94971 | 56.11485 | 10770 ft | 371 kts | 300° |
| 2026-05-05 03:13 | 24.96250 | 56.08993 | 10779 ft | 372 kts | 300° |
| 2026-05-05 03:14 | 24.97585 | 56.06599 | 10505 ft | 367 kts | 307° |
| 2026-05-05 03:14 | 24.99213 | 56.04483 | 10027 ft | 363 kts | 313° |
| 2026-05-05 03:14 | 25.00942 | 56.02406 | 9823 ft | 365 kts | 314° |
| 2026-05-05 03:14 | 25.02636 | 56.00357 | 9771 ft | 367 kts | 313° |
| 2026-05-05 03:15 | 25.04341 | 55.98281 | 9691 ft | 358 kts | 313° |
| 2026-05-05 03:15 | 25.05975 | 55.96285 | 9346 ft | 347 kts | 313° |
| 2026-05-05 03:15 | 25.07376 | 55.94582 | 9072 ft | 336 kts | 314° |
| 2026-05-05 03:15 | 25.08931 | 55.92678 | 8756 ft | 325 kts | 313° |
| 2026-05-05 03:16 | 25.10413 | 55.90854 | 8473 ft | 315 kts | 313° |
| 2026-05-05 03:16 | 25.11840 | 55.89100 | 8194 ft | 306 kts | 313° |
| 2026-05-05 03:16 | 25.13255 | 55.87361 | 7891 ft | 298 kts | 314° |
| 2026-05-05 03:16 | 25.14608 | 55.85698 | 7781 ft | 290 kts | 314° |
| 2026-05-05 03:17 | 25.15905 | 55.83946 | 7775 ft | 294 kts | 306° |
| 2026-05-05 03:17 | 25.16993 | 55.82050 | 7775 ft | 296 kts | 303° |
| 2026-05-05 03:17 | 25.18057 | 55.80118 | 7776 ft | 296 kts | 303° |
| 2026-05-05 03:17 | 25.19054 | 55.78110 | 7770 ft | 297 kts | 293° |
| 2026-05-05 03:18 | 25.19569 | 55.75921 | 7781 ft | 297 kts | 281° |
| 2026-05-05 03:18 | 25.19931 | 55.73659 | 7589 ft | 299 kts | 282° |
| 2026-05-05 03:18 | 25.20312 | 55.71395 | 7087 ft | 302 kts | 282° |
| 2026-05-05 03:18 | 25.20698 | 55.69142 | 6831 ft | 294 kts | 282° |
| 2026-05-05 03:19 | 25.21455 | 55.64746 | 6787 ft | 292 kts | 282° |
| 2026-05-05 03:19 | 25.21839 | 55.62525 | 6775 ft | 293 kts | 282° |
| 2026-05-05 03:19 | 25.22219 | 55.60320 | 6768 ft | 293 kts | 282° |
| 2026-05-05 03:20 | 25.22598 | 55.58117 | 6781 ft | 293 kts | 282° |
| 2026-05-05 03:20 | 25.22996 | 55.55915 | 6659 ft | 295 kts | 284° |
| 2026-05-05 03:20 | 25.23792 | 55.53788 | 6158 ft | 297 kts | 302° |
| 2026-05-05 03:20 | 25.24859 | 55.51902 | 5848 ft | 289 kts | 304° |
| 2026-05-05 03:21 | 25.25918 | 55.50029 | 5660 ft | 278 kts | 304° |
| 2026-05-05 03:21 | 25.26898 | 55.48273 | 5460 ft | 268 kts | 303° |
| 2026-05-05 03:21 | 25.27855 | 55.46554 | 5172 ft | 263 kts | 304° |
| 2026-05-05 03:21 | 25.28807 | 55.44845 | 4829 ft | 261 kts | 303° |
| 2026-05-05 03:22 | 25.29759 | 55.43138 | 4496 ft | 259 kts | 304° |
| 2026-05-05 03:22 | 25.30666 | 55.41519 | 4149 ft | 257 kts | 303° |
| 2026-05-05 03:23 | 25.31597 | 55.39850 | 3804 ft | 256 kts | 303° |
| 2026-05-05 03:23 | 25.32522 | 55.38188 | 3463 ft | 254 kts | 303° |
| 2026-05-05 03:23 | 25.33448 | 55.36528 | 3145 ft | 253 kts | 303° |
| 2026-05-05 03:23 | 25.34366 | 55.34879 | 2869 ft | 250 kts | 303° |
| 2026-05-05 03:24 | 25.35264 | 55.33265 | 2776 ft | 248 kts | 303° |
| 2026-05-05 03:24 | 25.36177 | 55.31637 | 2771 ft | 250 kts | 303° |
| 2026-05-05 03:24 | 25.37088 | 55.29993 | 2773 ft | 251 kts | 303° |
| 2026-05-05 03:24 | 25.38004 | 55.28336 | 2771 ft | 251 kts | 303° |
| 2026-05-05 03:25 | 25.38919 | 55.26681 | 2769 ft | 251 kts | 303° |
| 2026-05-05 03:25 | 25.39818 | 55.25072 | 2764 ft | 249 kts | 303° |
| 2026-05-05 03:25 | 25.40720 | 55.23440 | 2767 ft | 246 kts | 303° |
| 2026-05-05 03:25 | 25.41599 | 55.21846 | 2766 ft | 239 kts | 303° |
| 2026-05-05 03:26 | 25.42479 | 55.20260 | 2770 ft | 238 kts | 303° |
| 2026-05-05 03:26 | 25.43335 | 55.18725 | 2765 ft | 238 kts | 303° |
| 2026-05-05 03:26 | 25.44203 | 55.17154 | 2770 ft | 239 kts | 303° |
| 2026-05-05 03:26 | 25.45073 | 55.15578 | 2775 ft | 239 kts | 303° |
| 2026-05-05 03:27 | 25.45991 | 55.13921 | 2778 ft | 239 kts | 303° |
| 2026-05-05 03:27 | 25.46856 | 55.12367 | 2775 ft | 239 kts | 303° |
| 2026-05-05 03:27 | 25.47723 | 55.10795 | 2772 ft | 238 kts | 302° |
| 2026-05-05 03:27 | 25.48584 | 55.09233 | 2781 ft | 238 kts | 303° |
| 2026-05-05 03:28 | 25.51077 | 55.04656 | 2777 ft | 239 kts | 297° |
| 2026-05-05 03:28 | 25.51452 | 55.02849 | 2782 ft | 242 kts | 268° |
| 2026-05-05 03:29 | 25.50922 | 55.01090 | 2778 ft | 244 kts | 235° |
| 2026-05-05 03:29 | 25.49683 | 54.99871 | 2782 ft | 241 kts | 209° |
| 2026-05-05 03:29 | 25.48148 | 54.99353 | 2772 ft | 225 kts | 182° |
| 2026-05-05 03:29 | 25.46663 | 54.99661 | 2780 ft | 220 kts | 154° |
| 2026-05-05 03:30 | 25.45477 | 55.00680 | 2786 ft | 219 kts | 127° |
| 2026-05-05 03:30 | 25.44644 | 55.02073 | 2798 ft | 215 kts | 118° |
| 2026-05-05 03:30 | 25.43904 | 55.03455 | 2790 ft | 205 kts | 118° |
| 2026-05-05 03:30 | 25.43149 | 55.04854 | 2789 ft | 210 kts | 118° |
| 2026-05-05 03:31 | 25.42425 | 55.06183 | 2781 ft | 196 kts | 119° |
| 2026-05-05 03:31 | 25.41720 | 55.07458 | 2780 ft | 193 kts | 120° |
| 2026-05-05 03:31 | 25.41018 | 55.08723 | 2783 ft | 193 kts | 119° |
| 2026-05-05 03:31 | 25.40320 | 55.09986 | 2774 ft | 193 kts | 119° |
| 2026-05-05 03:32 | 25.39619 | 55.11250 | 2715 ft | 192 kts | 119° |
| 2026-05-05 03:32 | 25.38885 | 55.12476 | 2425 ft | 191 kts | 122° |
| 2026-05-05 03:32 | 25.38141 | 55.13668 | 2292 ft | 188 kts | 123° |
| 2026-05-05 03:32 | 25.37399 | 55.14865 | 2271 ft | 189 kts | 122° |
| 2026-05-05 03:33 | 25.36687 | 55.16021 | 2263 ft | 177 kts | 122° |
| 2026-05-05 03:33 | 25.36012 | 55.17118 | 2257 ft | 169 kts | 122° |
| 2026-05-05 03:33 | 25.35362 | 55.18182 | 2278 ft | 167 kts | 122° |
| 2026-05-05 03:33 | 25.34747 | 55.19283 | 2279 ft | 169 kts | 119° |
| 2026-05-05 03:34 | 25.34150 | 55.20380 | 2275 ft | 167 kts | 119° |
| 2026-05-05 03:34 | 25.33545 | 55.21475 | 2271 ft | 167 kts | 120° |
| 2026-05-05 03:34 | 25.32948 | 55.22556 | 2271 ft | 168 kts | 120° |
| 2026-05-05 03:34 | 25.32329 | 55.23676 | 2275 ft | 169 kts | 119° |
| 2026-05-05 03:35 | 25.31720 | 55.24781 | 2268 ft | 168 kts | 120° |
| 2026-05-05 03:35 | 25.31102 | 55.25899 | 2097 ft | 173 kts | 120° |
| 2026-05-05 03:35 | 25.30494 | 55.27001 | 1850 ft | 166 kts | 120° |
| 2026-05-05 03:35 | 25.29913 | 55.28050 | 1648 ft | 155 kts | 121° |
| 2026-05-05 03:36 | 25.29360 | 55.29052 | 1459 ft | 153 kts | 120° |
| 2026-05-05 03:36 | 25.28803 | 55.30061 | 1277 ft | 153 kts | 121° |
| 2026-05-05 03:36 | 25.28253 | 55.31055 | 1082 ft | 153 kts | 121° |
| 2026-05-05 03:36 | 25.27691 | 55.32053 | 876 ft | 154 kts | 122° |
| 2026-05-05 03:37 | 25.27128 | 55.33057 | 721 ft | 156 kts | 122° |
| 2026-05-05 03:37 | 25.26584 | 55.34059 | 558 ft | 157 kts | 121° |
| 2026-05-05 03:37 | 25.26043 | 55.35074 | 323 ft | 154 kts | 121° |
| 2026-05-05 03:37 | 25.25734 | 55.35646 | 225 ft | 151 kts | 123° |
| 2026-05-05 03:38 | 25.25583 | 55.35919 | 143 ft | 152 kts | 123° |
| 2026-05-05 03:38 | 25.25028 | 55.36887 | 17 ft | 142 kts | 123° |
| 2026-05-05 03:39 | 25.24660 | 55.37579 | 24 ft | 58 kts | 127° |
| 2026-05-05 03:39 | 25.24582 | 55.37703 | 25 ft | 1 kts | 120° |
| 2026-05-05 03:39 | 25.24532 | 55.37805 | 27 ft | 40 kts | 115° |
| 2026-05-05 03:39 | 25.24334 | 55.38149 | 34 ft | 55 kts | 124° |
| 2026-05-05 03:40 | 25.24250 | 55.38297 | 35 ft | 11 kts | 113° |
| 2026-05-05 03:40 | 25.24219 | 55.38383 | 35 ft | 13 kts | 114° |
| 2026-05-05 03:40 | 25.24154 | 55.38418 | 36 ft | 10 kts | 162° |
| 2026-05-05 03:40 | 25.24053 | 55.38461 | 36 ft | 25 kts | 165° |
| 2026-05-05 03:41 | 25.25028 | 55.36887 | 15 ft | 0 kts | 123° |
| 2026-05-05 03:41 | 25.25012 | 55.36914 | 18 ft | 7 kts | 123° |